Brant, New York
Current Conditions -  °F | °C
As of 10:16 PM on Thursday 27 Nov 2014 (Local Time) from KDKK Reporting Station
Light Snow Light Snow  
Wind Chill: 18°   Ceiling: 1600
Heat Index: 32°   Visibility: 4mi
Dew Point: 29°   Wind: 26mph
Humidity: 88%   Direction: 320°NW
Pressure: 30.1"   Gusts: 36mph
Location:  42.59°N, 79.02°W
Report Text: KDKK 280316Z AUTO 32023G31KT 4SM -SN BR SCT009 BKN016 OVC027 00/M02 A3010 RMK AO2 PK WND 33031/0316 SNB0255 P0001 T00001017
Loading
Personal Weather Stations






























Interactive Weather Map New forecast layout! Learn more

10-Day Weather Forecast

Advertisements
Track Severe Weather on mobile